sensor_id;sensor_type;location;lat;lon;timestamp;temperature;humidity
14473;DHT22;7322;50.872;4.386;2022-07-21T00:00:04;19.80;99.90
14473;DHT22;7322;50.872;4.386;2022-07-21T00:02:33;19.90;99.90
14473;DHT22;7322;50.872;4.386;2022-07-21T00:05:00;19.80;99.90
14473;DHT22;7322;50.872;4.386;2022-07-21T00:07:27;19.90;99.90
14473;DHT22;7322;50.872;4.386;2022-07-21T00:09:54;19.80;99.90
14473;DHT22;7322;50.872;4.386;2022-07-21T00:12:22;19.80;99.90
14473;DHT22;7322;50.872;4.386;2022-07-21T00:14:49;19.80;99.90
14473;DHT22;7322;50.872;4.386;2022-07-21T00:17:16;19.80;99.90
14473;DHT22;7322;50.872;4.386;2022-07-21T00:19:43;19.90;99.90
14473;DHT22;7322;50.872;4.386;2022-07-21T00:22:10;19.80;99.90
14473;DHT22;7322;50.872;4.386;2022-07-21T00:24:38;19.80;99.90
14473;DHT22;7322;50.872;4.386;2022-07-21T00:27:05;19.90;99.90
14473;DHT22;7322;50.872;4.386;2022-07-21T00:29:33;19.80;99.90
14473;DHT22;7322;50.872;4.386;2022-07-21T00:32:00;19.70;99.90
14473;DHT22;7322;50.872;4.386;2022-07-21T00:34:29;19.80;99.90
14473;DHT22;7322;50.872;4.386;2022-07-21T00:36:56;19.90;99.90
14473;DHT22;7322;50.872;4.386;2022-07-21T00:39:23;19.90;99.90
14473;DHT22;7322;50.872;4.386;2022-07-21T00:41:50;19.80;99.90
14473;DHT22;7322;50.872;4.386;2022-07-21T00:44:21;19.80;99.90
14473;DHT22;7322;50.872;4.386;2022-07-21T00:46:50;19.60;99.90
14473;DHT22;7322;50.872;4.386;2022-07-21T00:49:18;19.60;99.90
14473;DHT22;7322;50.872;4.386;2022-07-21T00:51:45;19.60;99.90
14473;DHT22;7322;50.872;4.386;2022-07-21T00:54:15;19.70;99.90
14473;DHT22;7322;50.872;4.386;2022-07-21T00:56:43;19.70;99.90
14473;DHT22;7322;50.872;4.386;2022-07-21T00:59:11;19.70;99.90
14473;DHT22;7322;50.872;4.386;2022-07-21T01:01:39;19.80;99.90
14473;DHT22;7322;50.872;4.386;2022-07-21T01:04:07;19.80;99.90
14473;DHT22;7322;50.872;4.386;2022-07-21T01:06:34;19.70;99.90
14473;DHT22;7322;50.872;4.386;2022-07-21T01:09:02;19.80;99.90
14473;DHT22;7322;50.872;4.386;2022-07-21T01:11:29;19.60;99.90
14473;DHT22;7322;50.872;4.386;2022-07-21T01:13:56;19.60;99.90
14473;DHT22;7322;50.872;4.386;2022-07-21T01:16:23;19.60;99.90
14473;DHT22;7322;50.872;4.386;2022-07-21T01:18:51;19.50;99.90
14473;DHT22;7322;50.872;4.386;2022-07-21T01:21:30;19.50;99.90
14473;DHT22;7322;50.872;4.386;2022-07-21T01:23:58;19.50;99.90
14473;DHT22;7322;50.872;4.386;2022-07-21T01:26:25;19.50;99.90
14473;DHT22;7322;50.872;4.386;2022-07-21T01:28:53;19.40;99.90
14473;DHT22;7322;50.872;4.386;2022-07-21T01:31:20;19.40;99.90
14473;DHT22;7322;50.872;4.386;2022-07-21T01:33:49;19.40;99.90
14473;DHT22;7322;50.872;4.386;2022-07-21T01:36:20;19.40;99.90
14473;DHT22;7322;50.872;4.386;2022-07-21T01:38:48;19.40;99.90
14473;DHT22;7322;50.872;4.386;2022-07-21T01:41:34;19.40;99.90
14473;DHT22;7322;50.872;4.386;2022-07-21T01:44:03;19.30;99.90
14473;DHT22;7322;50.872;4.386;2022-07-21T01:46:32;19.40;99.90
14473;DHT22;7322;50.872;4.386;2022-07-21T01:49:00;19.50;99.90
14473;DHT22;7322;50.872;4.386;2022-07-21T01:51:28;19.50;99.90
14473;DHT22;7322;50.872;4.386;2022-07-21T01:53:56;19.60;99.90
14473;DHT22;7322;50.872;4.386;2022-07-21T01:56:24;19.50;99.90
14473;DHT22;7322;50.872;4.386;2022-07-21T01:58:53;19.50;99.90
14473;DHT22;7322;50.872;4.386;2022-07-21T02:01:21;19.40;99.90
14473;DHT22;7322;50.872;4.386;2022-07-21T02:03:49;19.40;99.90
14473;DHT22;7322;50.872;4.386;2022-07-21T02:06:16;19.40;99.90
14473;DHT22;7322;50.872;4.386;2022-07-21T02:08:43;19.40;99.90
14473;DHT22;7322;50.872;4.386;2022-07-21T02:11:13;19.50;99.90
14473;DHT22;7322;50.872;4.386;2022-07-21T02:13:40;19.50;99.90
14473;DHT22;7322;50.872;4.386;2022-07-21T02:16:07;19.40;99.90
14473;DHT22;7322;50.872;4.386;2022-07-21T02:18:35;19.40;99.90
14473;DHT22;7322;50.872;4.386;2022-07-21T02:21:02;19.30;99.90
14473;DHT22;7322;50.872;4.386;2022-07-21T02:23:29;19.50;99.90
14473;DHT22;7322;50.872;4.386;2022-07-21T02:25:56;19.50;99.90
14473;DHT22;7322;50.872;4.386;2022-07-21T02:28:25;19.50;99.90
14473;DHT22;7322;50.872;4.386;2022-07-21T02:30:52;19.50;99.90
14473;DHT22;7322;50.872;4.386;2022-07-21T02:33:20;19.50;99.90
14473;DHT22;7322;50.872;4.386;2022-07-21T02:35:46;19.40;99.90
14473;DHT22;7322;50.872;4.386;2022-07-21T02:38:13;19.50;99.90
14473;DHT22;7322;50.872;4.386;2022-07-21T02:40:40;19.50;99.90
14473;DHT22;7322;50.872;4.386;2022-07-21T02:43:07;19.50;99.90
14473;DHT22;7322;50.872;4.386;2022-07-21T02:45:36;19.40;99.90
14473;DHT22;7322;50.872;4.386;2022-07-21T02:48:05;19.50;99.90
14473;DHT22;7322;50.872;4.386;2022-07-21T02:50:34;19.40;99.90
14473;DHT22;7322;50.872;4.386;2022-07-21T02:53:03;19.50;99.90
14473;DHT22;7322;50.872;4.386;2022-07-21T02:55:30;19.50;99.90
14473;DHT22;7322;50.872;4.386;2022-07-21T02:58:05;19.60;99.90
14473;DHT22;7322;50.872;4.386;2022-07-21T03:00:36;19.50;99.90
14473;DHT22;7322;50.872;4.386;2022-07-21T03:03:05;19.40;99.90
14473;DHT22;7322;50.872;4.386;2022-07-21T03:05:32;19.40;99.90
14473;DHT22;7322;50.872;4.386;2022-07-21T03:07:59;19.40;99.90
14473;DHT22;7322;50.872;4.386;2022-07-21T03:10:26;19.50;99.90
14473;DHT22;7322;50.872;4.386;2022-07-21T03:12:53;19.50;99.90
14473;DHT22;7322;50.872;4.386;2022-07-21T03:15:20;19.40;99.90
14473;DHT22;7322;50.872;4.386;2022-07-21T03:17:49;19.30;99.90
14473;DHT22;7322;50.872;4.386;2022-07-21T03:20:16;19.40;99.90
14473;DHT22;7322;50.872;4.386;2022-07-21T03:22:43;19.40;99.90
14473;DHT22;7322;50.872;4.386;2022-07-21T03:25:10;19.10;99.90
14473;DHT22;7322;50.872;4.386;2022-07-21T03:27:37;19.20;99.90
14473;DHT22;7322;50.872;4.386;2022-07-21T03:30:07;19.10;99.90
14473;DHT22;7322;50.872;4.386;2022-07-21T03:32:35;19.20;99.90
14473;DHT22;7322;50.872;4.386;2022-07-21T03:35:05;19.30;99.90
14473;DHT22;7322;50.872;4.386;2022-07-21T03:37:32;19.40;99.90
14473;DHT22;7322;50.872;4.386;2022-07-21T03:39:59;19.40;99.90
14473;DHT22;7322;50.872;4.386;2022-07-21T03:42:26;19.40;99.90
14473;DHT22;7322;50.872;4.386;2022-07-21T03:44:53;19.40;99.90
14473;DHT22;7322;50.872;4.386;2022-07-21T03:47:20;19.30;99.90
14473;DHT22;7322;50.872;4.386;2022-07-21T03:49:47;19.30;99.90
14473;DHT22;7322;50.872;4.386;2022-07-21T03:52:15;19.20;99.90
14473;DHT22;7322;50.872;4.386;2022-07-21T03:54:42;19.20;99.90
14473;DHT22;7322;50.872;4.386;2022-07-21T03:57:09;19.30;99.90
14473;DHT22;7322;50.872;4.386;2022-07-21T03:59:36;19.40;99.90
14473;DHT22;7322;50.872;4.386;2022-07-21T04:02:03;19.30;99.90
14473;DHT22;7322;50.872;4.386;2022-07-21T04:04:30;19.30;99.90
14473;DHT22;7322;50.872;4.386;2022-07-21T04:06:57;19.20;99.90
14473;DHT22;7322;50.872;4.386;2022-07-21T04:09:27;19.30;99.90
14473;DHT22;7322;50.872;4.386;2022-07-21T04:12:04;19.20;99.90
14473;DHT22;7322;50.872;4.386;2022-07-21T04:14:30;19.30;99.90
14473;DHT22;7322;50.872;4.386;2022-07-21T04:16:58;19.20;99.90
14473;DHT22;7322;50.872;4.386;2022-07-21T04:19:25;19.40;99.90
14473;DHT22;7322;50.872;4.386;2022-07-21T04:21:52;19.40;99.90
14473;DHT22;7322;50.872;4.386;2022-07-21T04:24:19;19.40;99.90
14473;DHT22;7322;50.872;4.386;2022-07-21T04:26:47;19.30;99.90
14473;DHT22;7322;50.872;4.386;2022-07-21T04:29:14;19.20;99.90
14473;DHT22;7322;50.872;4.386;2022-07-21T04:31:41;19.20;99.90
14473;DHT22;7322;50.872;4.386;2022-07-21T04:34:08;19.30;99.90
14473;DHT22;7322;50.872;4.386;2022-07-21T04:36:35;19.20;99.90
14473;DHT22;7322;50.872;4.386;2022-07-21T04:39:02;19.20;99.90
14473;DHT22;7322;50.872;4.386;2022-07-21T04:41:29;19.30;99.90
14473;DHT22;7322;50.872;4.386;2022-07-21T04:43:59;19.20;99.90
14473;DHT22;7322;50.872;4.386;2022-07-21T04:46:26;19.20;99.90
14473;DHT22;7322;50.872;4.386;2022-07-21T04:48:53;19.30;99.90
14473;DHT22;7322;50.872;4.386;2022-07-21T04:51:21;19.30;99.90
14473;DHT22;7322;50.872;4.386;2022-07-21T04:53:49;19.40;99.90
14473;DHT22;7322;50.872;4.386;2022-07-21T04:56:16;19.40;99.90
14473;DHT22;7322;50.872;4.386;2022-07-21T04:58:42;19.40;99.90
14473;DHT22;7322;50.872;4.386;2022-07-21T05:01:12;19.30;99.90
14473;DHT22;7322;50.872;4.386;2022-07-21T05:03:40;19.30;99.90
14473;DHT22;7322;50.872;4.386;2022-07-21T05:06:07;19.40;99.90
14473;DHT22;7322;50.872;4.386;2022-07-21T05:08:34;19.40;99.90
14473;DHT22;7322;50.872;4.386;2022-07-21T05:11:01;19.30;99.90
14473;DHT22;7322;50.872;4.386;2022-07-21T05:13:28;19.40;99.90
14473;DHT22;7322;50.872;4.386;2022-07-21T05:15:56;19.40;99.90
14473;DHT22;7322;50.872;4.386;2022-07-21T05:18:24;19.40;99.90
14473;DHT22;7322;50.872;4.386;2022-07-21T05:20:51;19.30;99.90
14473;DHT22;7322;50.872;4.386;2022-07-21T05:23:18;19.40;99.90
14473;DHT22;7322;50.872;4.386;2022-07-21T05:25:45;19.40;99.90
14473;DHT22;7322;50.872;4.386;2022-07-21T05:28:12;19.20;99.90
14473;DHT22;7322;50.872;4.386;2022-07-21T05:30:39;19.20;99.90
14473;DHT22;7322;50.872;4.386;2022-07-21T05:33:06;19.10;99.90
14473;DHT22;7322;50.872;4.386;2022-07-21T05:35:35;19.00;99.90
14473;DHT22;7322;50.872;4.386;2022-07-21T05:38:02;19.10;99.90
14473;DHT22;7322;50.872;4.386;2022-07-21T05:40:29;19.00;99.90
14473;DHT22;7322;50.872;4.386;2022-07-21T05:42:56;19.10;99.90
14473;DHT22;7322;50.872;4.386;2022-07-21T05:45:23;19.10;99.90
14473;DHT22;7322;50.872;4.386;2022-07-21T05:47:50;19.00;99.90
14473;DHT22;7322;50.872;4.386;2022-07-21T05:50:17;19.10;99.90
14473;DHT22;7322;50.872;4.386;2022-07-21T05:52:45;19.00;99.90
14473;DHT22;7322;50.872;4.386;2022-07-21T05:55:13;19.20;99.90
14473;DHT22;7322;50.872;4.386;2022-07-21T05:57:40;19.20;99.90
14473;DHT22;7322;50.872;4.386;2022-07-21T06:00:08;19.20;99.90
14473;DHT22;7322;50.872;4.386;2022-07-21T06:02:35;19.00;99.90
14473;DHT22;7322;50.872;4.386;2022-07-21T06:05:02;19.10;99.90
14473;DHT22;7322;50.872;4.386;2022-07-21T06:07:29;19.10;99.90
14473;DHT22;7322;50.872;4.386;2022-07-21T06:09:57;19.10;99.90
14473;DHT22;7322;50.872;4.386;2022-07-21T06:12:26;19.10;99.90
14473;DHT22;7322;50.872;4.386;2022-07-21T06:14:53;19.00;99.90
14473;DHT22;7322;50.872;4.386;2022-07-21T06:17:20;19.10;99.90
14473;DHT22;7322;50.872;4.386;2022-07-21T06:19:48;18.90;99.90
14473;DHT22;7322;50.872;4.386;2022-07-21T06:22:15;19.00;99.90
14473;DHT22;7322;50.872;4.386;2022-07-21T06:24:43;18.90;99.90
14473;DHT22;7322;50.872;4.386;2022-07-21T06:27:11;18.90;99.90
14473;DHT22;7322;50.872;4.386;2022-07-21T06:29:39;18.90;99.90
14473;DHT22;7322;50.872;4.386;2022-07-21T06:32:07;18.80;99.90
14473;DHT22;7322;50.872;4.386;2022-07-21T06:34:35;18.80;99.90
14473;DHT22;7322;50.872;4.386;2022-07-21T06:37:02;18.80;99.90
14473;DHT22;7322;50.872;4.386;2022-07-21T06:39:29;18.80;99.90
14473;DHT22;7322;50.872;4.386;2022-07-21T06:41:56;18.70;99.90
14473;DHT22;7322;50.872;4.386;2022-07-21T06:44:24;18.70;99.90
14473;DHT22;7322;50.872;4.386;2022-07-21T06:46:52;18.70;99.90
14473;DHT22;7322;50.872;4.386;2022-07-21T06:49:19;18.70;99.90
14473;DHT22;7322;50.872;4.386;2022-07-21T06:51:46;18.60;99.90
14473;DHT22;7322;50.872;4.386;2022-07-21T06:54:13;18.60;99.90
14473;DHT22;7322;50.872;4.386;2022-07-21T06:56:40;18.60;99.90
14473;DHT22;7322;50.872;4.386;2022-07-21T06:59:07;18.70;99.90
14473;DHT22;7322;50.872;4.386;2022-07-21T07:01:36;18.70;99.90
14473;DHT22;7322;50.872;4.386;2022-07-21T07:04:04;18.70;99.90
14473;DHT22;7322;50.872;4.386;2022-07-21T07:06:31;18.60;99.90
14473;DHT22;7322;50.872;4.386;2022-07-21T07:08:58;18.60;99.90
14473;DHT22;7322;50.872;4.386;2022-07-21T07:11:25;18.70;99.90
14473;DHT22;7322;50.872;4.386;2022-07-21T07:13:52;18.70;99.90
14473;DHT22;7322;50.872;4.386;2022-07-21T07:16:19;18.70;99.90
14473;DHT22;7322;50.872;4.386;2022-07-21T07:18:47;18.70;99.90
14473;DHT22;7322;50.872;4.386;2022-07-21T07:21:15;18.70;99.90
14473;DHT22;7322;50.872;4.386;2022-07-21T07:23:42;18.70;99.90
14473;DHT22;7322;50.872;4.386;2022-07-21T07:26:09;18.70;99.90
14473;DHT22;7322;50.872;4.386;2022-07-21T07:28:36;18.80;99.90
14473;DHT22;7322;50.872;4.386;2022-07-21T07:31:03;18.80;99.90
14473;DHT22;7322;50.872;4.386;2022-07-21T07:33:30;18.90;99.90
14473;DHT22;7322;50.872;4.386;2022-07-21T07:35:58;18.90;99.90
14473;DHT22;7322;50.872;4.386;2022-07-21T07:38:25;18.90;99.90
14473;DHT22;7322;50.872;4.386;2022-07-21T07:40:52;19.00;99.90
14473;DHT22;7322;50.872;4.386;2022-07-21T07:43:19;19.00;99.90
14473;DHT22;7322;50.872;4.386;2022-07-21T07:45:46;18.90;99.90
14473;DHT22;7322;50.872;4.386;2022-07-21T07:48:13;18.90;99.90
14473;DHT22;7322;50.872;4.386;2022-07-21T07:50:40;18.90;99.90
14473;DHT22;7322;50.872;4.386;2022-07-21T07:53:08;18.90;99.90
14473;DHT22;7322;50.872;4.386;2022-07-21T07:55:35;18.90;99.90
14473;DHT22;7322;50.872;4.386;2022-07-21T07:58:03;19.00;99.90
14473;DHT22;7322;50.872;4.386;2022-07-21T08:00:30;19.00;99.90
14473;DHT22;7322;50.872;4.386;2022-07-21T08:02:57;18.90;99.90
14473;DHT22;7322;50.872;4.386;2022-07-21T08:05:24;18.90;99.90
14473;DHT22;7322;50.872;4.386;2022-07-21T08:07:52;18.90;99.90
14473;DHT22;7322;50.872;4.386;2022-07-21T08:10:20;18.90;99.90
14473;DHT22;7322;50.872;4.386;2022-07-21T08:12:47;18.90;99.90
14473;DHT22;7322;50.872;4.386;2022-07-21T08:15:14;18.90;99.90
14473;DHT22;7322;50.872;4.386;2022-07-21T08:17:41;18.90;99.90
14473;DHT22;7322;50.872;4.386;2022-07-21T08:20:09;19.10;99.90
14473;DHT22;7322;50.872;4.386;2022-07-21T08:22:36;19.10;99.90
14473;DHT22;7322;50.872;4.386;2022-07-21T08:25:04;19.10;99.90
14473;DHT22;7322;50.872;4.386;2022-07-21T08:27:32;19.00;99.90
14473;DHT22;7322;50.872;4.386;2022-07-21T08:29:59;19.10;99.90
14473;DHT22;7322;50.872;4.386;2022-07-21T08:32:26;19.10;99.90
14473;DHT22;7322;50.872;4.386;2022-07-21T08:34:53;19.10;99.90
14473;DHT22;7322;50.872;4.386;2022-07-21T08:37:22;19.00;99.90
14473;DHT22;7322;50.872;4.386;2022-07-21T08:39:49;19.10;99.90
14473;DHT22;7322;50.872;4.386;2022-07-21T08:42:16;19.00;99.90
14473;DHT22;7322;50.872;4.386;2022-07-21T08:44:45;19.00;99.90
14473;DHT22;7322;50.872;4.386;2022-07-21T08:47:12;19.00;99.90
14473;DHT22;7322;50.872;4.386;2022-07-21T08:49:39;19.00;99.90
14473;DHT22;7322;50.872;4.386;2022-07-21T08:52:07;19.00;99.90
14473;DHT22;7322;50.872;4.386;2022-07-21T08:54:34;19.00;99.90
14473;DHT22;7322;50.872;4.386;2022-07-21T08:57:01;19.10;99.90
14473;DHT22;7322;50.872;4.386;2022-07-21T08:59:28;19.10;99.90
14473;DHT22;7322;50.872;4.386;2022-07-21T09:01:57;19.10;99.90
14473;DHT22;7322;50.872;4.386;2022-07-21T09:04:26;19.10;99.90
14473;DHT22;7322;50.872;4.386;2022-07-21T09:06:55;19.10;99.90
14473;DHT22;7322;50.872;4.386;2022-07-21T09:09:24;19.00;99.90
14473;DHT22;7322;50.872;4.386;2022-07-21T09:11:51;18.90;99.90
14473;DHT22;7322;50.872;4.386;2022-07-21T09:14:21;19.00;99.90
14473;DHT22;7322;50.872;4.386;2022-07-21T09:16:49;19.10;99.90
14473;DHT22;7322;50.872;4.386;2022-07-21T09:19:22;19.10;99.90
14473;DHT22;7322;50.872;4.386;2022-07-21T09:21:50;19.20;99.90
14473;DHT22;7322;50.872;4.386;2022-07-21T09:24:21;19.20;99.90
14473;DHT22;7322;50.872;4.386;2022-07-21T09:27:04;19.20;99.90
14473;DHT22;7322;50.872;4.386;2022-07-21T09:29:40;19.30;99.90
14473;DHT22;7322;50.872;4.386;2022-07-21T09:32:16;19.30;99.90
14473;DHT22;7322;50.872;4.386;2022-07-21T09:34:46;19.30;99.90
14473;DHT22;7322;50.872;4.386;2022-07-21T09:37:15;19.20;99.90
14473;DHT22;7322;50.872;4.386;2022-07-21T09:39:44;19.20;99.90
14473;DHT22;7322;50.872;4.386;2022-07-21T09:42:15;19.20;99.90
14473;DHT22;7322;50.872;4.386;2022-07-21T09:44:45;19.30;99.90
14473;DHT22;7322;50.872;4.386;2022-07-21T09:47:13;19.30;99.90
14473;DHT22;7322;50.872;4.386;2022-07-21T09:49:42;19.20;99.90
14473;DHT22;7322;50.872;4.386;2022-07-21T09:52:26;19.10;99.90
14473;DHT22;7322;50.872;4.386;2022-07-21T09:54:55;19.20;99.90
14473;DHT22;7322;50.872;4.386;2022-07-21T09:57:23;19.20;99.90
14473;DHT22;7322;50.872;4.386;2022-07-21T09:59:50;19.30;99.90
14473;DHT22;7322;50.872;4.386;2022-07-21T10:02:20;19.30;99.90
14473;DHT22;7322;50.872;4.386;2022-07-21T10:04:54;19.20;99.90
14473;DHT22;7322;50.872;4.386;2022-07-21T10:07:22;19.20;99.90
14473;DHT22;7322;50.872;4.386;2022-07-21T10:09:57;19.30;99.90
14473;DHT22;7322;50.872;4.386;2022-07-21T10:12:26;19.30;99.90
14473;DHT22;7322;50.872;4.386;2022-07-21T10:14:54;19.20;99.90
14473;DHT22;7322;50.872;4.386;2022-07-21T10:17:23;19.30;99.90
14473;DHT22;7322;50.872;4.386;2022-07-21T10:20:03;19.40;99.90
14473;DHT22;7322;50.872;4.386;2022-07-21T10:22:48;19.60;99.90
14473;DHT22;7322;50.872;4.386;2022-07-21T10:25:21;19.70;99.90
14473;DHT22;7322;50.872;4.386;2022-07-21T10:28:13;19.80;99.90
14473;DHT22;7322;50.872;4.386;2022-07-21T10:30:41;20.00;99.90
14473;DHT22;7322;50.872;4.386;2022-07-21T10:33:10;20.00;99.90
14473;DHT22;7322;50.872;4.386;2022-07-21T10:35:41;20.10;99.90
14473;DHT22;7322;50.872;4.386;2022-07-21T10:38:25;19.80;99.90
14473;DHT22;7322;50.872;4.386;2022-07-21T10:40:54;19.60;99.90
14473;DHT22;7322;50.872;4.386;2022-07-21T10:43:43;19.50;99.90
14473;DHT22;7322;50.872;4.386;2022-07-21T10:46:35;19.50;99.90
14473;DHT22;7322;50.872;4.386;2022-07-21T10:49:07;19.60;99.90
14473;DHT22;7322;50.872;4.386;2022-07-21T10:51:36;19.40;99.90
14473;DHT22;7322;50.872;4.386;2022-07-21T10:54:23;19.40;99.90
14473;DHT22;7322;50.872;4.386;2022-07-21T10:57:27;19.50;99.90
14473;DHT22;7322;50.872;4.386;2022-07-21T11:00:23;19.70;99.90
14473;DHT22;7322;50.872;4.386;2022-07-21T11:02:53;19.50;99.90
14473;DHT22;7322;50.872;4.386;2022-07-21T11:05:20;19.50;99.90
14473;DHT22;7322;50.872;4.386;2022-07-21T11:08:13;20.00;99.90
14473;DHT22;7322;50.872;4.386;2022-07-21T11:10:42;20.50;99.90
14473;DHT22;7322;50.872;4.386;2022-07-21T11:13:12;20.60;99.90
14473;DHT22;7322;50.872;4.386;2022-07-21T11:16:00;20.80;99.90
14473;DHT22;7322;50.872;4.386;2022-07-21T11:18:31;20.80;99.90
14473;DHT22;7322;50.872;4.386;2022-07-21T11:21:07;20.80;99.90
14473;DHT22;7322;50.872;4.386;2022-07-21T11:23:36;20.70;99.90
14473;DHT22;7322;50.872;4.386;2022-07-21T11:26:04;20.70;99.90
14473;DHT22;7322;50.872;4.386;2022-07-21T11:28:33;20.60;99.90
14473;DHT22;7322;50.872;4.386;2022-07-21T11:31:08;20.60;99.90
14473;DHT22;7322;50.872;4.386;2022-07-21T11:33:37;20.60;99.90
14473;DHT22;7322;50.872;4.386;2022-07-21T11:36:04;20.60;99.90
14473;DHT22;7322;50.872;4.386;2022-07-21T11:38:32;20.20;99.90
14473;DHT22;7322;50.872;4.386;2022-07-21T11:41:16;20.10;99.90
14473;DHT22;7322;50.872;4.386;2022-07-21T11:43:46;20.30;99.90
14473;DHT22;7322;50.872;4.386;2022-07-21T11:46:13;20.00;99.90
14473;DHT22;7322;50.872;4.386;2022-07-21T11:48:40;20.10;99.90
14473;DHT22;7322;50.872;4.386;2022-07-21T11:51:07;20.10;99.90
14473;DHT22;7322;50.872;4.386;2022-07-21T11:53:35;20.10;99.90
14473;DHT22;7322;50.872;4.386;2022-07-21T11:56:12;20.10;99.90
14473;DHT22;7322;50.872;4.386;2022-07-21T11:58:39;20.10;99.90
14473;DHT22;7322;50.872;4.386;2022-07-21T12:01:09;20.20;99.90
14473;DHT22;7322;50.872;4.386;2022-07-21T12:03:47;20.20;99.90
14473;DHT22;7322;50.872;4.386;2022-07-21T12:06:14;20.10;99.90
14473;DHT22;7322;50.872;4.386;2022-07-21T12:08:43;20.30;99.90
14473;DHT22;7322;50.872;4.386;2022-07-21T12:11:11;20.40;99.90
14473;DHT22;7322;50.872;4.386;2022-07-21T12:13:55;20.40;99.90
14473;DHT22;7322;50.872;4.386;2022-07-21T12:16:24;20.70;99.90
14473;DHT22;7322;50.872;4.386;2022-07-21T12:19:09;20.90;99.90
14473;DHT22;7322;50.872;4.386;2022-07-21T12:21:47;20.80;99.90
14473;DHT22;7322;50.872;4.386;2022-07-21T12:24:17;20.70;99.90
14473;DHT22;7322;50.872;4.386;2022-07-21T12:26:45;20.70;99.90
14473;DHT22;7322;50.872;4.386;2022-07-21T12:29:25;20.90;99.90
14473;DHT22;7322;50.872;4.386;2022-07-21T12:31:54;20.90;99.90
14473;DHT22;7322;50.872;4.386;2022-07-21T12:34:21;20.80;99.90
14473;DHT22;7322;50.872;4.386;2022-07-21T12:36:50;20.60;99.90
14473;DHT22;7322;50.872;4.386;2022-07-21T12:39:19;20.60;99.90
14473;DHT22;7322;50.872;4.386;2022-07-21T12:42:07;20.60;99.90
14473;DHT22;7322;50.872;4.386;2022-07-21T12:44:35;20.60;99.90
14473;DHT22;7322;50.872;4.386;2022-07-21T12:47:17;20.60;99.90
14473;DHT22;7322;50.872;4.386;2022-07-21T12:49:56;20.70;99.90
14473;DHT22;7322;50.872;4.386;2022-07-21T12:52:24;20.60;99.90
14473;DHT22;7322;50.872;4.386;2022-07-21T12:54:51;20.60;99.90
14473;DHT22;7322;50.872;4.386;2022-07-21T12:57:18;20.50;99.90
14473;DHT22;7322;50.872;4.386;2022-07-21T12:59:45;20.10;99.90
14473;DHT22;7322;50.872;4.386;2022-07-21T13:02:12;20.10;99.90
14473;DHT22;7322;50.872;4.386;2022-07-21T13:04:40;20.00;99.90
14473;DHT22;7322;50.872;4.386;2022-07-21T13:07:07;20.10;99.90
14473;DHT22;7322;50.872;4.386;2022-07-21T13:09:34;20.00;99.90
14473;DHT22;7322;50.872;4.386;2022-07-21T13:12:01;20.10;99.90
14473;DHT22;7322;50.872;4.386;2022-07-21T13:14:28;20.10;99.90
14473;DHT22;7322;50.872;4.386;2022-07-21T13:16:55;20.00;99.90
14473;DHT22;7322;50.872;4.386;2022-07-21T13:19:23;19.90;99.90
14473;DHT22;7322;50.872;4.386;2022-07-21T13:21:52;20.00;99.90
14473;DHT22;7322;50.872;4.386;2022-07-21T13:24:19;20.10;99.90
14473;DHT22;7322;50.872;4.386;2022-07-21T13:26:52;20.00;99.90
14473;DHT22;7322;50.872;4.386;2022-07-21T13:29:26;20.20;99.90
14473;DHT22;7322;50.872;4.386;2022-07-21T13:31:53;20.10;99.90
14473;DHT22;7322;50.872;4.386;2022-07-21T13:34:19;20.20;99.90
14473;DHT22;7322;50.872;4.386;2022-07-21T13:36:47;20.20;99.90
14473;DHT22;7322;50.872;4.386;2022-07-21T13:39:16;20.20;99.90
14473;DHT22;7322;50.872;4.386;2022-07-21T13:41:43;20.00;99.90
14473;DHT22;7322;50.872;4.386;2022-07-21T13:44:09;20.10;99.90
14473;DHT22;7322;50.872;4.386;2022-07-21T13:46:36;20.20;99.90
14473;DHT22;7322;50.872;4.386;2022-07-21T13:49:03;20.20;99.90
14473;DHT22;7322;50.872;4.386;2022-07-21T13:51:30;20.20;99.90
14473;DHT22;7322;50.872;4.386;2022-07-21T13:53:58;20.20;99.90
14473;DHT22;7322;50.872;4.386;2022-07-21T13:56:27;20.20;99.90
14473;DHT22;7322;50.872;4.386;2022-07-21T13:58:54;20.20;99.90
14473;DHT22;7322;50.872;4.386;2022-07-21T14:01:21;20.10;99.90
14473;DHT22;7322;50.872;4.386;2022-07-21T14:03:49;20.20;99.90
14473;DHT22;7322;50.872;4.386;2022-07-21T14:06:17;20.20;99.90
14473;DHT22;7322;50.872;4.386;2022-07-21T14:08:44;20.30;99.90
14473;DHT22;7322;50.872;4.386;2022-07-21T14:11:11;20.50;99.90
14473;DHT22;7322;50.872;4.386;2022-07-21T14:13:40;20.80;99.90
14473;DHT22;7322;50.872;4.386;2022-07-21T14:16:08;20.80;99.90
14473;DHT22;7322;50.872;4.386;2022-07-21T14:18:35;20.80;99.90
14473;DHT22;7322;50.872;4.386;2022-07-21T14:21:02;20.70;99.90
14473;DHT22;7322;50.872;4.386;2022-07-21T14:23:30;20.70;99.90
14473;DHT22;7322;50.872;4.386;2022-07-21T14:25:57;20.70;99.90
14473;DHT22;7322;50.872;4.386;2022-07-21T14:28:24;20.80;99.90
14473;DHT22;7322;50.872;4.386;2022-07-21T14:30:52;20.90;99.90
14473;DHT22;7322;50.872;4.386;2022-07-21T14:33:19;21.20;99.90
14473;DHT22;7322;50.872;4.386;2022-07-21T14:35:46;21.30;99.90
14473;DHT22;7322;50.872;4.386;2022-07-21T14:38:13;21.10;99.90
14473;DHT22;7322;50.872;4.386;2022-07-21T14:40:41;21.10;99.90
14473;DHT22;7322;50.872;4.386;2022-07-21T14:43:09;21.00;99.90
14473;DHT22;7322;50.872;4.386;2022-07-21T14:45:36;21.10;99.90
14473;DHT22;7322;50.872;4.386;2022-07-21T14:48:05;21.10;99.90
14473;DHT22;7322;50.872;4.386;2022-07-21T14:50:34;21.10;99.90
14473;DHT22;7322;50.872;4.386;2022-07-21T14:53:02;21.00;99.90
14473;DHT22;7322;50.872;4.386;2022-07-21T14:55:31;20.70;99.90
14473;DHT22;7322;50.872;4.386;2022-07-21T14:57:58;20.60;99.90
14473;DHT22;7322;50.872;4.386;2022-07-21T15:00:25;20.50;99.90
14473;DHT22;7322;50.872;4.386;2022-07-21T15:02:52;20.80;99.90
14473;DHT22;7322;50.872;4.386;2022-07-21T15:05:21;21.10;99.90
14473;DHT22;7322;50.872;4.386;2022-07-21T15:07:48;21.40;99.90
14473;DHT22;7322;50.872;4.386;2022-07-21T15:10:15;21.60;99.90
14473;DHT22;7322;50.872;4.386;2022-07-21T15:12:42;21.80;99.90
14473;DHT22;7322;50.872;4.386;2022-07-21T15:15:09;21.90;99.90
14473;DHT22;7322;50.872;4.386;2022-07-21T15:17:36;21.70;99.90
14473;DHT22;7322;50.872;4.386;2022-07-21T15:20:04;21.50;99.90
14473;DHT22;7322;50.872;4.386;2022-07-21T15:22:33;21.60;99.90
14473;DHT22;7322;50.872;4.386;2022-07-21T15:25:01;21.50;99.90
14473;DHT22;7322;50.872;4.386;2022-07-21T15:27:28;21.30;99.90
14473;DHT22;7322;50.872;4.386;2022-07-21T15:29:56;21.10;99.90
14473;DHT22;7322;50.872;4.386;2022-07-21T15:32:24;20.90;99.90
14473;DHT22;7322;50.872;4.386;2022-07-21T15:34:51;20.80;99.90
14473;DHT22;7322;50.872;4.386;2022-07-21T15:37:19;20.90;99.90
14473;DHT22;7322;50.872;4.386;2022-07-21T15:39:47;20.90;99.90
14473;DHT22;7322;50.872;4.386;2022-07-21T15:42:14;21.10;99.90
14473;DHT22;7322;50.872;4.386;2022-07-21T15:44:43;21.30;99.90
14473;DHT22;7322;50.872;4.386;2022-07-21T15:47:10;21.30;99.90
14473;DHT22;7322;50.872;4.386;2022-07-21T15:49:37;21.40;99.90
14473;DHT22;7322;50.872;4.386;2022-07-21T15:52:04;21.40;99.90
14473;DHT22;7322;50.872;4.386;2022-07-21T15:54:31;21.50;99.90